sensor_id;sensor_type;location;lat;lon;timestamp;pressure;altitude;pressure_sealevel;temperature;humidity
9462;BME280;4769;42.660;23.262;2023-02-18T00:01:56;94692.28;;;6.65;56.79
9462;BME280;4769;42.660;23.262;2023-02-18T00:04:24;94698.09;;;6.60;57.93
9462;BME280;4769;42.660;23.262;2023-02-18T00:06:51;94701.72;;;6.33;58.12
9462;BME280;4769;42.660;23.262;2023-02-18T00:09:18;94696.47;;;6.40;57.52
9462;BME280;4769;42.660;23.262;2023-02-18T00:11:45;94674.09;;;6.31;58.28
9462;BME280;4769;42.660;23.262;2023-02-18T00:14:13;94684.59;;;6.50;58.35
9462;BME280;4769;42.660;23.262;2023-02-18T00:16:40;94689.03;;;6.56;57.96
9462;BME280;4769;42.660;23.262;2023-02-18T00:19:15;94681.38;;;6.48;58.33
9462;BME280;4769;42.660;23.262;2023-02-18T00:21:43;94684.00;;;6.42;58.59
9462;BME280;4769;42.660;23.262;2023-02-18T00:24:12;94675.13;;;6.30;59.40
9462;BME280;4769;42.660;23.262;2023-02-18T00:26:40;94675.94;;;6.30;58.81
9462;BME280;4769;42.660;23.262;2023-02-18T00:29:07;94679.56;;;6.29;58.65
9462;BME280;4769;42.660;23.262;2023-02-18T00:31:35;94665.66;;;6.42;58.71
9462;BME280;4769;42.660;23.262;2023-02-18T00:34:03;94645.91;;;6.07;59.06
9462;BME280;4769;42.660;23.262;2023-02-18T00:36:30;94666.81;;;6.00;60.41
9462;BME280;4769;42.660;23.262;2023-02-18T00:39:01;94654.75;;;6.06;60.06
9462;BME280;4769;42.660;23.262;2023-02-18T00:41:29;94645.69;;;6.02;60.13
9462;BME280;4769;42.660;23.262;2023-02-18T00:43:56;94658.13;;;5.80;61.16
9462;BME280;4769;42.660;23.262;2023-02-18T00:46:24;94660.97;;;5.92;60.74
9462;BME280;4769;42.660;23.262;2023-02-18T00:48:51;94665.63;;;6.09;59.98
9462;BME280;4769;42.660;23.262;2023-02-18T00:51:17;94666.41;;;5.97;61.01
9462;BME280;4769;42.660;23.262;2023-02-18T00:53:44;94650.63;;;5.77;61.55
9462;BME280;4769;42.660;23.262;2023-02-18T00:56:12;94655.84;;;5.64;62.38
9462;BME280;4769;42.660;23.262;2023-02-18T00:58:39;94659.09;;;5.73;62.33
9462;BME280;4769;42.660;23.262;2023-02-18T01:01:08;94640.31;;;5.50;62.43
9462;BME280;4769;42.660;23.262;2023-02-18T01:03:35;94657.56;;;5.31;63.70
9462;BME280;4769;42.660;23.262;2023-02-18T01:06:02;94651.19;;;5.53;63.20
9462;BME280;4769;42.660;23.262;2023-02-18T01:08:29;94650.28;;;5.80;62.42
9462;BME280;4769;42.660;23.262;2023-02-18T01:10:58;94663.19;;;5.88;62.21
9462;BME280;4769;42.660;23.262;2023-02-18T01:13:27;94669.22;;;5.89;62.63
9462;BME280;4769;42.660;23.262;2023-02-18T01:15:54;94654.13;;;5.84;62.09
9462;BME280;4769;42.660;23.262;2023-02-18T01:18:21;94653.31;;;5.84;61.24
9462;BME280;4769;42.660;23.262;2023-02-18T01:20:48;94641.19;;;5.76;61.60
9462;BME280;4769;42.660;23.262;2023-02-18T01:23:15;94655.91;;;5.84;61.41
9462;BME280;4769;42.660;23.262;2023-02-18T01:25:43;94644.19;;;5.67;62.83
9462;BME280;4769;42.660;23.262;2023-02-18T01:28:12;94639.72;;;5.61;62.94
9462;BME280;4769;42.660;23.262;2023-02-18T01:30:41;94642.38;;;5.67;62.48
9462;BME280;4769;42.660;23.262;2023-02-18T01:33:08;94621.19;;;5.49;63.33
9462;BME280;4769;42.660;23.262;2023-02-18T01:35:37;94650.84;;;5.69;61.74
9462;BME280;4769;42.660;23.262;2023-02-18T01:38:04;94633.53;;;5.75;62.02
9462;BME280;4769;42.660;23.262;2023-02-18T01:40:31;94659.53;;;5.83;62.15
9462;BME280;4769;42.660;23.262;2023-02-18T01:42:57;94638.34;;;5.65;62.48
9462;BME280;4769;42.660;23.262;2023-02-18T01:45:49;94639.75;;;5.74;62.88
9462;BME280;4769;42.660;23.262;2023-02-18T01:48:19;94635.34;;;5.74;62.59
9462;BME280;4769;42.660;23.262;2023-02-18T01:50:50;94649.84;;;5.77;62.18
9462;BME280;4769;42.660;23.262;2023-02-18T01:53:22;94665.06;;;5.54;63.40
9462;BME280;4769;42.660;23.262;2023-02-18T01:55:52;94650.38;;;5.53;63.53
9462;BME280;4769;42.660;23.262;2023-02-18T01:58:19;94665.88;;;5.48;63.68
9462;BME280;4769;42.660;23.262;2023-02-18T02:00:47;94664.91;;;5.62;63.68
9462;BME280;4769;42.660;23.262;2023-02-18T02:03:14;94673.56;;;5.69;63.33
9462;BME280;4769;42.660;23.262;2023-02-18T02:05:41;94670.69;;;5.51;63.99
9462;BME280;4769;42.660;23.262;2023-02-18T02:08:08;94674.31;;;5.50;64.19
9462;BME280;4769;42.660;23.262;2023-02-18T02:10:44;94668.84;;;5.45;64.22
9462;BME280;4769;42.660;23.262;2023-02-18T02:13:17;94664.22;;;5.47;63.94
9462;BME280;4769;42.660;23.262;2023-02-18T02:15:52;94665.22;;;5.39;63.96
9462;BME280;4769;42.660;23.262;2023-02-18T02:18:35;94658.66;;;5.56;63.03
9462;BME280;4769;42.660;23.262;2023-02-18T02:27:20;94650.91;;;5.35;63.46
9462;BME280;4769;42.660;23.262;2023-02-18T02:33:08;94655.78;;;5.45;62.99
9462;BME280;4769;42.660;23.262;2023-02-18T02:35:41;94643.53;;;5.52;62.76
9462;BME280;4769;42.660;23.262;2023-02-18T02:38:15;94642.28;;;5.35;63.66
9462;BME280;4769;42.660;23.262;2023-02-18T02:40:46;94632.59;;;5.35;63.86
9462;BME280;4769;42.660;23.262;2023-02-18T02:43:20;94643.66;;;5.31;64.59
9462;BME280;4769;42.660;23.262;2023-02-18T02:45:55;94640.00;;;5.25;64.92
9462;BME280;4769;42.660;23.262;2023-02-18T02:48:32;94625.47;;;5.03;65.35
9462;BME280;4769;42.660;23.262;2023-02-18T02:51:08;94627.09;;;5.11;65.63
9462;BME280;4769;42.660;23.262;2023-02-18T02:53:39;94634.94;;;5.11;64.97
9462;BME280;4769;42.660;23.262;2023-02-18T02:56:10;94628.50;;;5.07;64.33
9462;BME280;4769;42.660;23.262;2023-02-18T02:58:39;94633.56;;;5.21;64.35
9462;BME280;4769;42.660;23.262;2023-02-18T03:01:16;94644.38;;;5.12;64.06
9462;BME280;4769;42.660;23.262;2023-02-18T03:04:09;94643.25;;;5.27;63.60
9462;BME280;4769;42.660;23.262;2023-02-18T03:07:06;94644.47;;;5.38;63.40
9462;BME280;4769;42.660;23.262;2023-02-18T03:09:44;94661.38;;;5.35;63.50
9462;BME280;4769;42.660;23.262;2023-02-18T03:12:22;94663.38;;;5.33;63.40
9462;BME280;4769;42.660;23.262;2023-02-18T03:14:57;94658.06;;;5.14;63.52
9462;BME280;4769;42.660;23.262;2023-02-18T03:17:27;94677.59;;;5.18;64.22
9462;BME280;4769;42.660;23.262;2023-02-18T03:19:59;94665.34;;;5.18;64.65
9462;BME280;4769;42.660;23.262;2023-02-18T03:22:31;94665.84;;;5.01;64.51
9462;BME280;4769;42.660;23.262;2023-02-18T03:25:02;94659.41;;;4.97;64.42
9462;BME280;4769;42.660;23.262;2023-02-18T03:27:31;94655.41;;;5.01;64.26
9462;BME280;4769;42.660;23.262;2023-02-18T03:30:04;94667.97;;;5.25;63.54
9462;BME280;4769;42.660;23.262;2023-02-18T03:32:33;94673.59;;;5.22;63.72
9462;BME280;4769;42.660;23.262;2023-02-18T03:35:03;94683.09;;;4.68;66.71
9462;BME280;4769;42.660;23.262;2023-02-18T03:37:36;94677.03;;;4.33;68.25
9462;BME280;4769;42.660;23.262;2023-02-18T03:40:06;94689.78;;;4.22;68.31
9462;BME280;4769;42.660;23.262;2023-02-18T03:42:34;94704.53;;;4.57;67.59
9462;BME280;4769;42.660;23.262;2023-02-18T03:45:01;94707.75;;;4.86;67.03
9462;BME280;4769;42.660;23.262;2023-02-18T03:47:28;94689.63;;;4.78;67.67
9462;BME280;4769;42.660;23.262;2023-02-18T03:49:55;94703.28;;;4.25;69.99
9462;BME280;4769;42.660;23.262;2023-02-18T03:52:22;94702.22;;;4.41;69.25
9462;BME280;4769;42.660;23.262;2023-02-18T03:54:50;94723.03;;;4.62;68.08
9462;BME280;4769;42.660;23.262;2023-02-18T03:57:17;94708.00;;;4.64;68.24
9462;BME280;4769;42.660;23.262;2023-02-18T03:59:44;94711.22;;;4.66;68.75
9462;BME280;4769;42.660;23.262;2023-02-18T04:02:11;94700.53;;;4.61;68.78
9462;BME280;4769;42.660;23.262;2023-02-18T04:04:37;94698.03;;;4.74;68.45
9462;BME280;4769;42.660;23.262;2023-02-18T04:07:04;94696.06;;;4.82;67.77
9462;BME280;4769;42.660;23.262;2023-02-18T04:09:31;94680.59;;;4.81;67.11
9462;BME280;4769;42.660;23.262;2023-02-18T04:11:59;94682.91;;;4.97;66.18
9462;BME280;4769;42.660;23.262;2023-02-18T04:14:26;94688.81;;;5.12;65.50
9462;BME280;4769;42.660;23.262;2023-02-18T04:16:53;94684.19;;;5.14;65.06
9462;BME280;4769;42.660;23.262;2023-02-18T04:19:19;94682.78;;;5.11;65.75
9462;BME280;4769;42.660;23.262;2023-02-18T04:21:46;94680.25;;;4.90;66.94
9462;BME280;4769;42.660;23.262;2023-02-18T04:24:13;94666.56;;;4.88;67.25
9462;BME280;4769;42.660;23.262;2023-02-18T04:26:40;94676.03;;;4.96;66.63
9462;BME280;4769;42.660;23.262;2023-02-18T04:29:08;94645.16;;;5.06;65.90
9462;BME280;4769;42.660;23.262;2023-02-18T04:31:34;94660.06;;;5.12;65.22
9462;BME280;4769;42.660;23.262;2023-02-18T04:34:01;94655.22;;;5.09;65.47
9462;BME280;4769;42.660;23.262;2023-02-18T04:36:28;94653.34;;;4.96;65.88
9462;BME280;4769;42.660;23.262;2023-02-18T04:38:55;94642.34;;;5.01;65.37
9462;BME280;4769;42.660;23.262;2023-02-18T04:41:22;94644.31;;;4.99;66.26
9462;BME280;4769;42.660;23.262;2023-02-18T04:43:48;94660.59;;;4.94;66.82
9462;BME280;4769;42.660;23.262;2023-02-18T04:46:17;94665.03;;;5.00;66.32
9462;BME280;4769;42.660;23.262;2023-02-18T04:48:43;94671.63;;;4.96;66.93
9462;BME280;4769;42.660;23.262;2023-02-18T04:51:10;94655.06;;;4.76;66.96
9462;BME280;4769;42.660;23.262;2023-02-18T04:53:37;94671.94;;;4.53;68.88
9462;BME280;4769;42.660;23.262;2023-02-18T04:56:04;94667.50;;;4.47;68.46
9462;BME280;4769;42.660;23.262;2023-02-18T04:58:31;94671.81;;;4.61;68.67
9462;BME280;4769;42.660;23.262;2023-02-18T05:00:58;94679.66;;;4.61;67.96
9462;BME280;4769;42.660;23.262;2023-02-18T05:03:27;94678.16;;;4.73;68.08
9462;BME280;4769;42.660;23.262;2023-02-18T05:05:54;94697.31;;;4.86;67.61
9462;BME280;4769;42.660;23.262;2023-02-18T05:08:21;94702.75;;;4.91;67.25
9462;BME280;4769;42.660;23.262;2023-02-18T05:10:48;94706.03;;;5.00;66.97
9462;BME280;4769;42.660;23.262;2023-02-18T05:13:15;94719.53;;;5.03;67.15
9462;BME280;4769;42.660;23.262;2023-02-18T05:15:42;94712.94;;;4.52;68.71
9462;BME280;4769;42.660;23.262;2023-02-18T05:18:09;94727.03;;;4.58;69.26
9462;BME280;4769;42.660;23.262;2023-02-18T05:20:37;94701.66;;;4.79;68.34
9462;BME280;4769;42.660;23.262;2023-02-18T05:23:04;94692.19;;;4.72;68.00
9462;BME280;4769;42.660;23.262;2023-02-18T05:25:31;94676.75;;;4.77;67.23
9462;BME280;4769;42.660;23.262;2023-02-18T05:27:58;94661.28;;;4.75;67.53
9462;BME280;4769;42.660;23.262;2023-02-18T05:30:25;94672.41;;;4.90;66.84
9462;BME280;4769;42.660;23.262;2023-02-18T05:32:51;94682.59;;;5.13;66.41
9462;BME280;4769;42.660;23.262;2023-02-18T05:35:19;94673.91;;;5.06;67.02
9462;BME280;4769;42.660;23.262;2023-02-18T05:37:47;94671.13;;;4.80;67.70
9462;BME280;4769;42.660;23.262;2023-02-18T05:40:14;94673.34;;;4.76;68.77
9462;BME280;4769;42.660;23.262;2023-02-18T05:42:41;94661.59;;;4.66;69.06
9462;BME280;4769;42.660;23.262;2023-02-18T05:45:08;94648.63;;;4.79;68.57
9462;BME280;4769;42.660;23.262;2023-02-18T05:47:35;94648.22;;;4.75;68.85
9462;BME280;4769;42.660;23.262;2023-02-18T05:50:03;94678.66;;;4.96;68.09
9462;BME280;4769;42.660;23.262;2023-02-18T05:52:29;94676.03;;;4.89;67.95
9462;BME280;4769;42.660;23.262;2023-02-18T05:54:58;94671.81;;;5.35;63.12
9462;BME280;4769;42.660;23.262;2023-02-18T05:57:25;94664.22;;;5.40;64.80
9462;BME280;4769;42.660;23.262;2023-02-18T05:59:51;94687.19;;;5.51;65.36
9462;BME280;4769;42.660;23.262;2023-02-18T06:02:18;94693.66;;;5.55;66.35
9462;BME280;4769;42.660;23.262;2023-02-18T06:04:45;94687.19;;;5.51;66.59
9462;BME280;4769;42.660;23.262;2023-02-18T06:07:12;94703.06;;;5.50;67.36
9462;BME280;4769;42.660;23.262;2023-02-18T06:09:39;94719.16;;;5.47;67.07
9462;BME280;4769;42.660;23.262;2023-02-18T06:12:08;94696.78;;;5.38;67.11
9462;BME280;4769;42.660;23.262;2023-02-18T06:14:35;94706.34;;;5.18;67.83
9462;BME280;4769;42.660;23.262;2023-02-18T06:17:02;94700.91;;;5.19;67.55
9462;BME280;4769;42.660;23.262;2023-02-18T06:19:29;94687.41;;;5.09;68.25
9462;BME280;4769;42.660;23.262;2023-02-18T06:21:56;94694.59;;;5.41;66.88
9462;BME280;4769;42.660;23.262;2023-02-18T06:24:23;94694.50;;;5.69;65.81
9462;BME280;4769;42.660;23.262;2023-02-18T06:26:50;94684.50;;;5.85;65.82
9462;BME280;4769;42.660;23.262;2023-02-18T06:29:22;94676.69;;;5.92;65.32
9462;BME280;4769;42.660;23.262;2023-02-18T06:31:49;94683.38;;;6.14;65.25
9462;BME280;4769;42.660;23.262;2023-02-18T06:34:16;94679.34;;;6.18;64.55
9462;BME280;4769;42.660;23.262;2023-02-18T06:36:43;94688.22;;;6.30;63.63
9462;BME280;4769;42.660;23.262;2023-02-18T06:39:11;94686.59;;;6.16;63.95
9462;BME280;4769;42.660;23.262;2023-02-18T06:41:38;94666.84;;;6.13;63.93
9462;BME280;4769;42.660;23.262;2023-02-18T06:44:06;94686.00;;;6.27;63.76
9462;BME280;4769;42.660;23.262;2023-02-18T06:46:35;94683.19;;;6.22;64.55
9462;BME280;4769;42.660;23.262;2023-02-18T06:49:02;94684.59;;;6.24;64.00
9462;BME280;4769;42.660;23.262;2023-02-18T06:51:32;94675.72;;;6.25;63.25
9462;BME280;4769;42.660;23.262;2023-02-18T06:53:59;94688.59;;;6.33;63.28
9462;BME280;4769;42.660;23.262;2023-02-18T06:56:26;94679.56;;;6.62;62.37
9462;BME280;4769;42.660;23.262;2023-02-18T06:58:53;94668.06;;;6.82;62.37
9462;BME280;4769;42.660;23.262;2023-02-18T07:01:20;94682.38;;;6.93;61.70
9462;BME280;4769;42.660;23.262;2023-02-18T07:03:48;94679.94;;;6.98;61.18
9462;BME280;4769;42.660;23.262;2023-02-18T07:06:14;94668.59;;;7.10;61.49
9462;BME280;4769;42.660;23.262;2023-02-18T07:08:41;94672.41;;;7.21;61.41
9462;BME280;4769;42.660;23.262;2023-02-18T07:11:08;94672.16;;;7.35;60.91
9462;BME280;4769;42.660;23.262;2023-02-18T07:13:35;94679.25;;;7.35;60.51
9462;BME280;4769;42.660;23.262;2023-02-18T07:16:01;94665.16;;;7.10;60.99
9462;BME280;4769;42.660;23.262;2023-02-18T07:18:28;94653.91;;;6.96;60.95
9462;BME280;4769;42.660;23.262;2023-02-18T07:20:56;94658.03;;;7.43;59.94
9462;BME280;4769;42.660;23.262;2023-02-18T07:23:23;94655.69;;;7.66;58.56
9462;BME280;4769;42.660;23.262;2023-02-18T07:25:50;94650.72;;;7.89;57.93
9462;BME280;4769;42.660;23.262;2023-02-18T07:28:17;94652.09;;;7.98;57.36
9462;BME280;4769;42.660;23.262;2023-02-18T07:30:43;94648.88;;;7.96;57.17
9462;BME280;4769;42.660;23.262;2023-02-18T07:33:10;94656.34;;;7.99;57.23
9462;BME280;4769;42.660;23.262;2023-02-18T07:35:38;94659.47;;;8.14;56.38
9462;BME280;4769;42.660;23.262;2023-02-18T07:38:06;94662.19;;;8.01;56.62
9462;BME280;4769;42.660;23.262;2023-02-18T07:40:36;94686.56;;;8.08;55.59
9462;BME280;4769;42.660;23.262;2023-02-18T07:43:03;94693.63;;;8.20;55.54
9462;BME280;4769;42.660;23.262;2023-02-18T07:45:30;94686.31;;;8.16;55.74
9462;BME280;4769;42.660;23.262;2023-02-18T07:47:56;94691.91;;;8.32;55.64
9462;BME280;4769;42.660;23.262;2023-02-18T07:50:23;94704.16;;;8.45;55.56
9462;BME280;4769;42.660;23.262;2023-02-18T07:52:50;94711.00;;;8.52;55.44
9462;BME280;4769;42.660;23.262;2023-02-18T07:55:18;94688.13;;;8.77;54.61
9462;BME280;4769;42.660;23.262;2023-02-18T07:57:44;94712.91;;;8.63;55.89
9462;BME280;4769;42.660;23.262;2023-02-18T08:00:25;94704.66;;;8.84;54.90
9462;BME280;4769;42.660;23.262;2023-02-18T08:02:52;94676.94;;;9.06;54.49
9462;BME280;4769;42.660;23.262;2023-02-18T08:05:19;94689.13;;;9.01;55.03
9462;BME280;4769;42.660;23.262;2023-02-18T08:07:45;94671.75;;;9.00;54.23
9462;BME280;4769;42.660;23.262;2023-02-18T08:10:12;94678.19;;;9.04;54.81
9462;BME280;4769;42.660;23.262;2023-02-18T08:12:41;94662.50;;;9.15;53.67
9462;BME280;4769;42.660;23.262;2023-02-18T08:15:08;94681.28;;;9.37;52.88
9462;BME280;4769;42.660;23.262;2023-02-18T08:17:35;94688.91;;;9.45;53.07
9462;BME280;4769;42.660;23.262;2023-02-18T08:20:02;94685.16;;;9.70;52.36
9462;BME280;4769;42.660;23.262;2023-02-18T08:22:28;94682.44;;;9.77;51.80
9462;BME280;4769;42.660;23.262;2023-02-18T08:24:55;94679.00;;;9.58;51.08
9462;BME280;4769;42.660;23.262;2023-02-18T08:27:25;94654.84;;;8.89;53.36
9462;BME280;4769;42.660;23.262;2023-02-18T08:29:54;94663.28;;;8.98;52.92
9462;BME280;4769;42.660;23.262;2023-02-18T08:32:21;94657.75;;;9.06;53.10
9462;BME280;4769;42.660;23.262;2023-02-18T08:34:47;94648.66;;;9.38;53.17
9462;BME280;4769;42.660;23.262;2023-02-18T08:37:14;94650.59;;;9.49;52.59
9462;BME280;4769;42.660;23.262;2023-02-18T08:39:41;94651.47;;;9.90;51.21
9462;BME280;4769;42.660;23.262;2023-02-18T08:42:08;94649.97;;;9.83;51.60
9462;BME280;4769;42.660;23.262;2023-02-18T08:44:35;94635.00;;;9.65;51.43
9462;BME280;4769;42.660;23.262;2023-02-18T08:47:03;94634.69;;;9.73;51.04
9462;BME280;4769;42.660;23.262;2023-02-18T08:49:30;94644.50;;;10.14;50.92
9462;BME280;4769;42.660;23.262;2023-02-18T08:51:57;94658.47;;;9.96;50.52
9462;BME280;4769;42.660;23.262;2023-02-18T08:54:23;94648.75;;;10.15;48.79
9462;BME280;4769;42.660;23.262;2023-02-18T08:56:53;94674.41;;;10.19;48.91
9462;BME280;4769;42.660;23.262;2023-02-18T08:59:20;94668.03;;;10.27;48.21
9462;BME280;4769;42.660;23.262;2023-02-18T09:01:46;94650.09;;;10.47;47.44
9462;BME280;4769;42.660;23.262;2023-02-18T09:04:15;94686.03;;;10.71;46.07
9462;BME280;4769;42.660;23.262;2023-02-18T09:06:42;94675.56;;;10.64;45.72
9462;BME280;4769;42.660;23.262;2023-02-18T09:09:08;94678.00;;;10.77;45.99
9462;BME280;4769;42.660;23.262;2023-02-18T09:11:35;94678.81;;;10.89;45.98
9462;BME280;4769;42.660;23.262;2023-02-18T09:14:02;94678.16;;;11.05;45.21
9462;BME280;4769;42.660;23.262;2023-02-18T09:16:29;94680.91;;;11.22;45.27
9462;BME280;4769;42.660;23.262;2023-02-18T09:18:56;94669.06;;;11.24;44.86
9462;BME280;4769;42.660;23.262;2023-02-18T09:21:25;94672.53;;;11.36;45.33
9462;BME280;4769;42.660;23.262;2023-02-18T09:23:52;94673.31;;;11.60;45.27
9462;BME280;4769;42.660;23.262;2023-02-18T09:26:20;94663.16;;;11.68;44.42
9462;BME280;4769;42.660;23.262;2023-02-18T09:28:48;94657.78;;;12.03;43.72
9462;BME280;4769;42.660;23.262;2023-02-18T09:31:19;94650.38;;;11.88;43.52
9462;BME280;4769;42.660;23.262;2023-02-18T09:33:48;94643.53;;;12.32;42.91
9462;BME280;4769;42.660;23.262;2023-02-18T09:36:16;94629.69;;;12.58;42.16
9462;BME280;4769;42.660;23.262;2023-02-18T09:38:44;94614.81;;;13.01;40.73
9462;BME280;4769;42.660;23.262;2023-02-18T09:41:23;94635.41;;;13.16;40.88
9462;BME280;4769;42.660;23.262;2023-02-18T09:43:55;94633.28;;;13.56;40.01
9462;BME280;4769;42.660;23.262;2023-02-18T09:46:27;94619.38;;;13.87;39.29
9462;BME280;4769;42.660;23.262;2023-02-18T09:48:56;94621.56;;;14.17;38.04
9462;BME280;4769;42.660;23.262;2023-02-18T09:51:23;94625.22;;;14.64;37.34
9462;BME280;4769;42.660;23.262;2023-02-18T09:53:51;94631.75;;;15.19;36.26
9462;BME280;4769;42.660;23.262;2023-02-18T09:56:22;94617.22;;;15.32;35.71
9462;BME280;4769;42.660;23.262;2023-02-18T09:59:04;94623.75;;;15.51;35.08
9462;BME280;4769;42.660;23.262;2023-02-18T10:01:36;94620.88;;;15.21;35.04
9462;BME280;4769;42.660;23.262;2023-02-18T10:04:06;94605.63;;;14.70;36.04
9462;BME280;4769;42.660;23.262;2023-02-18T10:06:35;94612.06;;;15.15;35.74
9462;BME280;4769;42.660;23.262;2023-02-18T10:09:12;94608.28;;;15.38;34.83
9462;BME280;4769;42.660;23.262;2023-02-18T10:11:41;94605.72;;;15.58;34.49
9462;BME280;4769;42.660;23.262;2023-02-18T10:14:11;94599.69;;;15.77;34.94
9462;BME280;4769;42.660;23.262;2023-02-18T10:16:39;94589.59;;;15.84;34.74
9462;BME280;4769;42.660;23.262;2023-02-18T10:19:19;94592.94;;;15.60;34.87
9462;BME280;4769;42.660;23.262;2023-02-18T10:21:47;94607.56;;;15.57;34.87
9462;BME280;4769;42.660;23.262;2023-02-18T10:24:32;94612.22;;;15.92;34.65
9462;BME280;4769;42.660;23.262;2023-02-18T10:27:00;94606.22;;;15.55;34.85
9462;BME280;4769;42.660;23.262;2023-02-18T10:29:29;94585.41;;;16.03;34.46
9462;BME280;4769;42.660;23.262;2023-02-18T10:32:00;94604.09;;;16.28;34.00
9462;BME280;4769;42.660;23.262;2023-02-18T10:34:38;94598.69;;;15.93;34.06
9462;BME280;4769;42.660;23.262;2023-02-18T10:37:14;94591.66;;;16.64;34.70
9462;BME280;4769;42.660;23.262;2023-02-18T10:40:00;94586.31;;;17.04;32.92
9462;BME280;4769;42.660;23.262;2023-02-18T10:42:37;94581.28;;;17.02;32.55
9462;BME280;4769;42.660;23.262;2023-02-18T10:45:18;94578.88;;;17.11;32.35
9462;BME280;4769;42.660;23.262;2023-02-18T10:48:00;94569.22;;;17.30;32.04
9462;BME280;4769;42.660;23.262;2023-02-18T10:50:34;94564.13;;;17.58;31.04
9462;BME280;4769;42.660;23.262;2023-02-18T10:53:10;94551.84;;;18.59;29.67
9462;BME280;4769;42.660;23.262;2023-02-18T10:55:41;94548.31;;;19.54;28.37
9462;BME280;4769;42.660;23.262;2023-02-18T10:58:31;94536.19;;;20.04;27.29
9462;BME280;4769;42.660;23.262;2023-02-18T11:00:59;94536.03;;;19.95;27.38
9462;BME280;4769;42.660;23.262;2023-02-18T11:03:38;94538.19;;;19.23;27.54
9462;BME280;4769;42.660;23.262;2023-02-18T11:06:15;94536.16;;;18.81;27.75
9462;BME280;4769;42.660;23.262;2023-02-18T11:08:44;94537.88;;;18.29;27.64
9462;BME280;4769;42.660;23.262;2023-02-18T11:11:16;94527.44;;;17.89;25.09
9462;BME280;4769;42.660;23.262;2023-02-18T11:13:51;94514.56;;;17.37;25.81
9462;BME280;4769;42.660;23.262;2023-02-18T11:16:20;94517.75;;;17.34;25.90
9462;BME280;4769;42.660;23.262;2023-02-18T11:18:48;94509.09;;;16.89;26.24
9462;BME280;4769;42.660;23.262;2023-02-18T11:21:23;94513.63;;;16.73;26.50
9462;BME280;4769;42.660;23.262;2023-02-18T11:23:52;94511.78;;;16.64;26.96
9462;BME280;4769;42.660;23.262;2023-02-18T11:26:26;94500.31;;;16.93;27.19
9462;BME280;4769;42.660;23.262;2023-02-18T11:28:57;94487.91;;;17.42;27.00
9462;BME280;4769;42.660;23.262;2023-02-18T11:31:35;94484.19;;;17.92;27.69
9462;BME280;4769;42.660;23.262;2023-02-18T11:34:05;94471.72;;;17.82;28.15
9462;BME280;4769;42.660;23.262;2023-02-18T11:36:34;94464.72;;;17.96;27.20
9462;BME280;4769;42.660;23.262;2023-02-18T11:39:04;94465.88;;;18.57;26.38
9462;BME280;4769;42.660;23.262;2023-02-18T11:41:36;94452.69;;;17.99;25.80
9462;BME280;4769;42.660;23.262;2023-02-18T11:44:05;94445.47;;;17.99;27.52
9462;BME280;4769;42.660;23.262;2023-02-18T11:46:33;94463.44;;;18.89;26.34
9462;BME280;4769;42.660;23.262;2023-02-18T11:49:19;94449.47;;;18.92;26.52
9462;BME280;4769;42.660;23.262;2023-02-18T11:51:47;94431.25;;;19.46;26.88
9462;BME280;4769;42.660;23.262;2023-02-18T11:54:22;94467.31;;;19.02;26.03
9462;BME280;4769;42.660;23.262;2023-02-18T11:56:56;94441.72;;;18.96;26.10
9462;BME280;4769;42.660;23.262;2023-02-18T11:59:23;94429.25;;;19.75;24.66
9462;BME280;4769;42.660;23.262;2023-02-18T12:01:53;94413.13;;;19.80;24.98
9462;BME280;4769;42.660;23.262;2023-02-18T12:04:28;94429.66;;;19.45;25.33
9462;BME280;4769;42.660;23.262;2023-02-18T12:07:07;94425.56;;;19.29;24.91
9462;BME280;4769;42.660;23.262;2023-02-18T12:09:42;94415.47;;;19.26;25.56
9462;BME280;4769;42.660;23.262;2023-02-18T12:12:13;94423.97;;;19.52;25.03
9462;BME280;4769;42.660;23.262;2023-02-18T12:14:41;94404.28;;;19.43;25.85
9462;BME280;4769;42.660;23.262;2023-02-18T12:17:17;94424.91;;;19.61;25.08
9462;BME280;4769;42.660;23.262;2023-02-18T12:22:44;94406.00;;;17.96;26.36
9462;BME280;4769;42.660;23.262;2023-02-18T12:25:24;94408.66;;;18.35;26.26
9462;BME280;4769;42.660;23.262;2023-02-18T12:28:07;94414.97;;;18.72;26.22
9462;BME280;4769;42.660;23.262;2023-02-18T12:30:54;94416.97;;;18.85;25.39
9462;BME280;4769;42.660;23.262;2023-02-18T12:33:32;94427.97;;;18.22;26.22
9462;BME280;4769;42.660;23.262;2023-02-18T12:36:09;94397.78;;;17.93;26.14
9462;BME280;4769;42.660;23.262;2023-02-18T12:39:01;94402.19;;;18.07;26.48
9462;BME280;4769;42.660;23.262;2023-02-18T12:44:37;94400.19;;;18.23;26.25
9462;BME280;4769;42.660;23.262;2023-02-18T12:47:30;94399.44;;;17.35;27.53
9462;BME280;4769;42.660;23.262;2023-02-18T12:53:27;94383.22;;;17.22;28.68
9462;BME280;4769;42.660;23.262;2023-02-18T12:56:06;94383.81;;;17.62;27.62
9462;BME280;4769;42.660;23.262;2023-02-18T12:58:46;94379.81;;;17.70;27.23
9462;BME280;4769;42.660;23.262;2023-02-18T13:01:44;94382.97;;;17.72;27.25
9462;BME280;4769;42.660;23.262;2023-02-18T13:04:26;94385.94;;;18.04;27.30
9462;BME280;4769;42.660;23.262;2023-02-18T13:07:15;94390.97;;;18.39;26.78
9462;BME280;4769;42.660;23.262;2023-02-18T13:09:59;94396.53;;;17.75;27.43
9462;BME280;4769;42.660;23.262;2023-02-18T13:12:35;94391.44;;;17.79;27.69
9462;BME280;4769;42.660;23.262;2023-02-18T13:15:16;94387.50;;;17.71;27.65
9462;BME280;4769;42.660;23.262;2023-02-18T13:17:46;94388.84;;;18.07;27.58
9462;BME280;4769;42.660;23.262;2023-02-18T13:20:19;94385.38;;;17.73;27.88
9462;BME280;4769;42.660;23.262;2023-02-18T13:22:47;94384.41;;;17.59;28.13
9462;BME280;4769;42.660;23.262;2023-02-18T13:25:16;94387.25;;;17.68;28.10
9462;BME280;4769;42.660;23.262;2023-02-18T13:27:48;94384.19;;;17.46;28.65
9462;BME280;4769;42.660;23.262;2023-02-18T13:30:22;94395.44;;;17.33;28.54
9462;BME280;4769;42.660;23.262;2023-02-18T13:33:02;94378.25;;;17.05;29.04
9462;BME280;4769;42.660;23.262;2023-02-18T13:35:34;94387.81;;;17.06;29.08
9462;BME280;4769;42.660;23.262;2023-02-18T13:38:20;94383.81;;;17.09;29.14
9462;BME280;4769;42.660;23.262;2023-02-18T13:40:52;94375.84;;;17.04;29.21
9462;BME280;4769;42.660;23.262;2023-02-18T13:43:29;94380.16;;;16.95;29.60
9462;BME280;4769;42.660;23.262;2023-02-18T13:46:17;94384.28;;;16.62;29.91
9462;BME280;4769;42.660;23.262;2023-02-18T13:48:47;94379.16;;;16.76;30.10
9462;BME280;4769;42.660;23.262;2023-02-18T13:51:26;94367.75;;;16.65;30.21
9462;BME280;4769;42.660;23.262;2023-02-18T13:54:00;94375.75;;;16.50;30.49